Terminal Aerodrome Forecast
Issued by NWS Sterling, VA

Current Version | Previous Version | Text Only | Print | Product List | Glossary Off
Versions: 1 2 3 4 5 6 7 8 9 10 11 12 13 14 15

000
FTUS41 KLWX 140500 RRA
TAFMRB
TAF
KMRB 140549Z 1406/1506 17005KT P6SM SCT250 WS020/21040KT
     FM141200 19009KT P6SM BKN200 BKN250
     FM141500 19013G24KT P6SM SCT050 BKN200
     FM150000 18009KT P6SM OVC080
     FM150200 18010KT P6SM -SHRA OVC070=

USA.gov is the U.S. government's official web portal to all federal, state and local government web resources and services.